Latest Weather Observations for Warrnambool

IDV60801

Issued at 12:35 pm EDT Sunday 26 October 2014 (issued every 30 minutes, with the page automatically refreshed every 10 minutes)

About weather observations | Map of weather stations | Latest weather observations for VIC | Other Formats
Station Details ID: 090186 Name: WARRNAMBOOL AIRPORT NDB Lat: -38.29 Lon: 142.45 Height: 70.8 m
Data from the previous 72 hours. | See also: Recent months at Warrnambool
Date/Time
EDT
Temp
°C
App
Temp
°C
Dew
Point
Rel
Hum
%
Delta-T
°C
Wind Press
QNH
hPa
Press
MSL
hPa
Rain
since 9 am
mm
Dir
 
Spd
km/h
Gust
km/h
Spd
kts
Gust
kts
26/12:30pm 15.7 12.9 11.3 75 2.4 N 17 20 9 11 1013.5 1013.5 0.0
26/12:00pm 16.1 14.0 11.3 73 2.6 NNE 13 19 7 10 1014.0 1014.0 0.0
26/11:30am 15.2 12.6 10.8 75 2.3 ENE 15 20 8 11 1012.9 1012.9 0.0
26/11:00am 14.6 12.3 10.6 77 2.1 NE 13 20 7 11 1013.4 1013.4 0.0
26/10:30am 13.8 11.3 9.6 76 2.2 NE 13 17 7 9 1014.1 1014.1 0.0
26/10:00am 14.1 12.8 9.9 76 2.2 E 7 13 4 7 1014.5 1014.5 0.0
26/09:30am 13.4 12.1 9.8 79 1.9 E 7 15 4 8 1014.6 1014.6 0.0
26/09:00am 13.0 11.6 9.6 80 1.7 ESE 7 15 4 8 1014.6 1014.6 0.0
26/08:30am 12.7 11.0 9.7 82 1.5 SE 9 11 5 6 1014.3 1014.3 0.0
26/08:00am 12.3 10.9 9.7 84 1.3 SSE 7 15 4 8 1014.5 1014.5 0.0
26/07:30am 12.1 12.1 9.8 86 1.2 CALM 0 0 0 0 1014.4 1014.4 0.0
26/07:00am 11.7 11.3 9.6 87 1.1 ENE 2 6 1 3 1014.2 1014.2 0.0
26/06:30am 11.6 11.6 9.9 89 0.9 CALM 0 0 0 0 1014.1 1014.1 0.0
26/06:00am 11.5 9.8 9.9 90 0.8 NE 9 15 5 8 1013.4 1013.4 0.0
26/05:30am 11.5 10.2 9.9 90 0.8 NNE 7 9 4 5 1013.9 1013.9 0.0
26/05:00am 11.6 11.6 9.9 89 0.9 CALM 0 0 0 0 1014.0 1014.0 0.0
26/04:30am 11.6 11.6 9.9 89 0.9 CALM 0 0 0 0 1013.9 1013.9 0.0
26/04:00am 11.6 11.6 9.7 88 1.0 CALM 0 0 0 0 1014.2 1014.2 0.0
26/03:30am 11.5 11.1 9.6 88 1.0 SE 2 7 1 4 1014.1 1014.1 0.0
26/03:00am 11.6 11.6 9.7 88 1.0 CALM 0 0 0 0 1014.7 1014.7 0.0
26/02:30am 11.6 10.8 9.7 88 1.0 SSE 4 7 2 4 1015.0 1015.0 0.0
26/02:00am 11.6 10.2 9.7 88 1.0 SE 7 9 4 5 1014.7 1014.7 0.0
26/01:30am 11.6 10.8 9.5 87 1.1 ENE 4 7 2 4 1015.3 1015.3 0.0
26/01:00am 11.7 10.5 9.4 86 1.2 SE 6 7 3 4 1015.9 1015.9 0.0
26/12:30am 11.7 9.9 9.3 85 1.2 SE 9 11 5 6 1015.9 1015.9 0.0
26/12:00am 11.7 10.1 8.9 83 1.4 SE 7 13 4 7 1016.2 1016.2 0.0
 
Date/Time
EDT
Temp
°C
App
Temp
°C
Dew
Point
Rel
Hum
%
Delta-T
°C
Wind Press
QNH
hPa
Press
MSL
hPa
Rain
since 9 am
mm
Dir
 
Spd
km/h
Gust
km/h
Spd
kts
Gust
kts
25/11:30pm 11.9 10.0 9.1 83 1.4 ESE 9 17 5 9 1016.4 1016.4 0.0
25/11:00pm 12.1 10.2 9.1 82 1.5 ESE 9 19 5 10 1016.4 1016.4 0.0
25/10:30pm 12.2 10.0 9.4 83 1.4 SE 11 15 6 8 1016.9 1016.9 0.0
25/10:00pm 12.4 10.6 9.6 83 1.4 SE 9 15 5 8 1017.1 1017.1 0.0
25/09:30pm 12.5 10.1 9.9 84 1.3 SE 13 15 7 8 1017.2 1017.2 0.0
25/09:00pm 12.6 10.1 9.8 83 1.4 SSE 13 20 7 11 1017.1 1017.1 0.0
25/08:30pm 12.7 9.4 9.7 82 1.5 S 17 24 9 13 1017.0 1017.0 0.0
25/08:00pm 12.8 9.8 9.4 80 1.7 SSE 15 20 8 11 1016.9 1016.9 0.0
25/07:30pm 13.2 10.3 9.6 79 1.8 S 15 19 8 10 1016.6 1016.6 0.0
25/07:00pm 13.5 9.6 9.6 77 2.0 S 20 26 11 14 1016.3 1016.3 0.0
25/06:30pm 13.8 9.9 9.5 75 2.2 S 20 26 11 14 1016.1 1016.1 0.0
25/06:00pm 14.4 10.5 9.4 72 2.6 S 20 28 11 15 1016.3 1016.3 0.0
25/05:30pm 14.8 11.2 9.8 72 2.6 S 19 22 10 12 1016.0 1016.0 0.0
25/05:00pm 15.0 11.6 10.4 74 2.4 SSE 19 24 10 13 1016.2 1016.2 0.0
25/04:30pm 15.2 11.6 10.4 73 2.5 S 20 26 11 14 1016.5 1016.5 0.0
25/04:00pm 15.8 12.1 10.3 70 2.9 SSE 20 28 11 15 1016.2 1016.2 0.0
25/03:30pm 15.6 11.8 9.9 69 3.0 SSE 20 28 11 15 1016.3 1016.3 0.0
25/03:00pm 15.8 11.8 10.6 71 2.8 S 22 26 12 14 1016.5 1016.5 0.0
25/02:30pm 15.3 11.7 10.5 73 2.5 SSE 20 24 11 13 1017.0 1017.0 0.0
25/02:00pm 15.5 12.0 10.9 74 2.5 SSE 20 24 11 13 1017.1 1017.1 0.0
25/01:30pm 15.0 12.0 10.6 75 2.3 SSE 17 22 9 12 1017.2 1017.2 0.0
25/01:00pm 14.7 11.3 10.7 77 2.1 S 19 24 10 13 1017.4 1017.4 0.0
25/12:30pm 14.7 11.7 10.5 76 2.2 S 17 20 9 11 1017.7 1017.7 0.0
25/12:00pm 14.8 13.4 10.8 77 2.1 ESE 9 15 5 8 1017.7 1017.7 0.0
25/11:30am 14.6 13.2 11.0 79 1.9 ESE 9 15 5 8 1017.8 1017.8 0.0
25/11:00am 14.3 12.5 10.9 80 1.8 SE 11 17 6 9 1017.7 1017.7 0.0
25/10:30am 13.5 11.7 11.0 85 1.3 SE 11 15 6 8 1017.8 1017.8 0.0
25/10:00am 13.8 12.3 12.0 89 1.0 SE 11 17 6 9 1017.8 1017.8 0.0
25/09:30am 13.0 11.7 12.4 96 0.3 SE 11 15 6 8 1018.2 1018.2 0.0
25/09:00am 12.7 10.9 12.2 97 0.3 SE 13 20 7 11 1018.3 1018.3 0.2
25/08:30am 12.2 11.1 11.9 98 0.2 SE 9 17 5 9 1018.3 1018.3 0.2
25/08:00am 12.5 11.9 12.3 99 0.1 SE 7 13 4 7 1017.9 1017.9 0.2
25/07:30am 11.7 10.8 11.5 99 0.1 ESE 7 11 4 6 1017.5 1017.5 0.2
25/07:00am 11.7 10.8 11.4 98 0.2 SE 7 11 4 6 1017.5 1017.5 0.2
25/06:30am 11.8 10.1 11.3 97 0.3 SSE 11 15 6 8 1017.2 1017.2 0.2
25/06:00am 12.0 9.9 11.2 95 0.4 S 13 19 7 10 1017.1 1017.1 0.2
25/05:30am 12.3 11.5 10.9 91 0.7 SSE 6 7 3 4 1016.8 1016.8 0.0
25/05:00am 12.6 11.2 10.8 89 0.9 S 9 13 5 7 1016.7 1016.7 0.0
25/04:30am 12.7 11.9 10.9 89 0.9 ESE 6 7 3 4 1016.4 1016.4 0.0
25/04:00am 12.5 11.7 11.1 91 0.7 SSE 6 7 3 4 1016.2 1016.2 0.0
25/03:30am 12.5 11.5 11.1 91 0.7 S 7 11 4 6 1016.3 1016.3 0.0
25/03:00am 12.4 11.4 11.1 92 0.7 S 7 9 4 5 1016.3 1016.3 0.0
25/02:30am 12.4 11.5 11.3 93 0.6 S 7 9 4 5 1016.6 1016.6 0.0
25/02:00am 12.4 10.8 11.5 94 0.5 SW 11 15 6 8 1016.9 1016.9 0.0
25/01:30am 12.4 10.5 11.8 96 0.3 SSW 13 17 7 9 1017.2 1017.2 0.0
25/01:00am 12.5 11.0 11.9 96 0.3 S 11 15 6 8 1017.3 1017.3 0.0
25/12:30am 12.7 11.2 11.9 95 0.4 SW 11 19 6 10 1017.4 1017.4 0.0
25/12:00am 12.8 10.1 11.7 93 0.6 WSW 17 20 9 11 1017.1 1017.1 0.0
 
Date/Time
EDT
Temp
°C
App
Temp
°C
Dew
Point
Rel
Hum
%
Delta-T
°C
Wind Press
QNH
hPa
Press
MSL
hPa
Rain
since 9 am
mm
Dir
 
Spd
km/h
Gust
km/h
Spd
kts
Gust
kts
24/11:30pm 13.3 9.5 11.2 87 1.1 SW 22 30 12 16 1017.2 1017.2 0.0
24/11:00pm 13.6 10.3 10.8 83 1.5 WSW 19 28 10 15 1016.9 1016.9 0.0
24/10:30pm 13.6 10.3 10.8 83 1.5 SW 19 26 10 14 1016.7 1016.7 0.0
24/10:00pm 13.7 9.5 11.0 84 1.4 WSW 24 32 13 17 1016.4 1016.4 0.0
24/09:30pm 13.8 10.0 11.3 85 1.3 WSW 22 28 12 15 1016.3 1016.3 0.0
24/09:00pm 13.9 9.7 11.2 84 1.4 WSW 24 32 13 17 1015.9 1015.9 0.0
24/08:30pm 13.9 10.5 11.2 84 1.4 WSW 20 26 11 14 1015.6 1015.6 0.0
24/08:00pm 14.0 10.2 11.3 84 1.4 WSW 22 32 12 17 1015.3 1015.3 0.0
24/07:30pm 14.4 10.8 11.9 85 1.4 WSW 22 32 12 17 1014.7 1014.7 0.0
24/07:00pm 15.1 10.7 11.7 80 1.8 WSW 26 35 14 19 1014.2 1014.2 0.0
24/06:30pm 15.9 11.4 12.5 80 1.9 SW 28 35 15 19 1013.7 1013.7 0.0
24/06:00pm 15.9 10.4 12.3 79 2.0 SW 33 43 18 23 1013.5 1013.5 0.0
24/05:30pm 17.0 11.8 12.9 77 2.3 SW 32 39 17 21 1012.9 1012.9 0.0
24/05:00pm 17.5 12.8 13.2 76 2.4 SW 30 39 16 21 1012.4 1012.5 0.0
24/04:30pm 19.9 16.9 14.7 72 3.0 WSW 24 28 13 15 1012.2 1012.3 0.0
24/04:00pm 19.4 14.7 14.4 73 2.9 SW 32 41 17 22 1012.0 1012.1 0.0
24/03:30pm 20.5 17.7 15.3 72 3.1 SSW 24 30 13 16 1011.6 1011.6 0.0
24/03:00pm 20.7 18.6 16.3 76 2.7 SSW 22 28 12 15 1011.5 1011.5 0.0
24/02:30pm 20.1 17.4 15.7 76 2.6 SW 24 30 13 16 1011.8 1011.9 0.0
24/02:00pm 20.8 18.0 16.4 76 2.7 SW 26 33 14 18 1011.7 1011.8 0.0
24/01:30pm 21.2 19.0 16.8 76 2.7 SW 24 32 13 17 1011.7 1011.8 0.0
24/01:00pm 20.9 18.0 15.0 69 3.5 SW 24 37 13 20 1011.8 1011.9 0.0
24/12:30pm 24.0 21.1 15.0 57 5.4 NW 24 32 13 17 1011.9 1012.0 0.0
24/12:00pm 23.7 22.0 15.7 61 4.8 NW 19 32 10 17 1011.9 1012.0 0.0
24/11:30am 22.7 19.3 14.8 61 4.7 W 26 35 14 19 1012.3 1012.4 0.0
24/11:00am 22.1 20.1 15.0 64 4.2 NW 19 24 10 13 1011.9 1012.0 0.0
24/10:30am 21.2 19.7 15.3 69 3.5 WNW 17 20 9 11 1011.9 1012.0 0.0
24/10:00am 20.2 18.8 15.6 75 2.7 NW 17 24 9 13 1011.8 1011.9 0.0
24/09:30am 17.6 16.1 15.4 87 1.3 N 17 20 9 11 1012.0 1012.1 0.0
24/09:00am 16.9 15.3 15.9 94 0.6 N 19 24 10 13 1012.1 1012.2 0.0
24/08:30am 15.1 12.9 14.3 95 0.5 N 19 26 10 14 1012.2 1012.3 0.0
24/08:00am 14.6 12.1 14.0 96 0.3 NNE 20 28 11 15 1011.8 1011.9 0.0
24/07:30am 14.1 10.3 13.5 96 0.3 NNE 26 33 14 18 1011.6 1011.6 0.0
24/07:00am 14.1 11.5 13.3 95 0.4 NNE 19 28 10 15 1011.7 1011.8 0.0
24/06:30am 14.2 11.4 13.2 94 0.6 NNE 20 32 11 17 1011.6 1011.6 0.0
24/06:00am 14.4 11.8 13.3 93 0.6 NE 19 30 10 16 1011.6 1011.6 0.0
24/05:30am 14.6 11.5 13.5 93 0.6 NE 22 30 12 16 1011.8 1011.9 0.0
24/05:00am 14.7 12.2 13.4 92 0.7 NE 19 24 10 13 1011.7 1011.8 0.0
24/04:30am 14.7 12.1 13.2 91 0.8 NE 19 26 10 14 1011.8 1011.9 0.0
24/04:00am 14.7 11.9 13.1 90 0.9 ENE 20 32 11 17 1012.1 1012.2 0.0
24/03:30am 14.8 12.1 13.0 89 1.0 ENE 19 26 10 14 1012.4 1012.5 0.0
24/03:00am 14.9 12.2 12.9 88 1.1 ENE 19 28 10 15 1013.0 1013.0 0.0
24/02:30am 15.1 12.4 13.0 87 1.2 ENE 19 26 10 14 1013.4 1013.4 0.0
24/02:00am 15.3 12.6 13.0 86 1.3 ENE 19 30 10 16 1013.6 1013.6 0.0
24/01:30am 15.4 12.5 12.9 85 1.4 ENE 20 33 11 18 1013.9 1013.9 0.0
24/01:00am 15.6 12.8 13.1 85 1.4 ENE 20 33 11 18 1014.3 1014.3 0.0
24/12:30am 15.8 13.0 13.3 85 1.4 ENE 20 35 11 19 1014.9 1014.9 0.0
24/12:00am 15.9 13.2 13.6 86 1.3 ENE 20 32 11 17 1015.2 1015.2 0.0
 
Date/Time
EDT
Temp
°C
App
Temp
°C
Dew
Point
Rel
Hum
%
Delta-T
°C
Wind Press
QNH
hPa
Press
MSL
hPa
Rain
since 9 am
mm
Dir
 
Spd
km/h
Gust
km/h
Spd
kts
Gust
kts
23/11:30pm 15.8 13.7 13.6 87 1.2 ENE 17 26 9 14 1015.4 1015.4 0.0
23/11:00pm 15.6 13.0 13.3 86 1.3 E 19 28 10 15 1015.5 1015.5 0.0
23/10:30pm 15.7 13.5 13.2 85 1.4 E 17 24 9 13 1015.8 1015.8 0.0
23/10:00pm 15.6 13.7 12.9 84 1.5 E 15 20 8 11 1016.2 1016.2 0.0
23/09:30pm 16.2 13.6 13.3 83 1.6 E 19 28 10 15 1016.1 1016.1 0.0
23/09:00pm 16.5 14.8 13.6 83 1.6 E 15 26 8 14 1015.9 1015.9 0.0
23/08:30pm 16.4 14.3 13.5 83 1.6 E 17 24 9 13 1015.7 1015.7 0.0
23/08:00pm 16.0 13.4 13.1 83 1.6 E 19 26 10 14 1015.9 1015.9 0.0
23/07:30pm 16.6 13.9 12.9 79 2.1 ENE 19 26 10 14 1015.8 1015.8 0.0
23/07:00pm 17.6 17.5 13.9 79 2.1 ESE 7 9 4 5 1015.7 1015.7 0.0
23/06:30pm 17.2 15.5 13.7 80 2.0 S 15 19 8 10 1015.5 1015.5 0.0
23/06:00pm 17.4 15.4 13.9 80 2.0 S 17 24 9 13 1015.5 1015.5 0.0
23/05:30pm 17.3 15.3 14.0 81 1.9 S 17 26 9 14 1015.6 1015.6 0.0
23/05:00pm 17.0 14.3 13.5 80 2.0 SSE 20 32 11 17 1015.8 1015.8 0.0
23/04:30pm 16.9 13.8 13.4 80 2.0 SSE 22 28 12 15 1016.2 1016.2 0.0
23/04:00pm 17.5 14.4 13.4 77 2.3 S 22 28 12 15 1016.5 1016.5 0.0
23/03:30pm 17.8 15.0 13.3 75 2.5 SSE 20 26 11 14 1016.7 1016.7 0.0
23/03:00pm 17.4 14.6 12.7 74 2.6 S 19 24 10 13 1017.0 1017.0 0.0
23/02:30pm 18.4 16.5 14.1 76 2.5 S 17 22 9 12 1017.4 1017.4 0.0
23/02:00pm 18.6 17.3 13.7 73 2.8 ESE 13 22 7 12 1017.8 1017.8 0.0
23/01:30pm 17.3 15.8 13.0 76 2.4 ESE 13 22 7 12 1018.3 1018.3 0.0
23/01:00pm 15.9 13.8 12.3 79 2.0 SE 15 20 8 11 1018.8 1018.8 0.0

Other Formats:

Comma delimited format used in spreadsheet applications
http://www.bom.gov.au/fwo/IDV60801/IDV60801.94837.axf

JavaScript Object Notation format (JSON) in row-major order
http://www.bom.gov.au/fwo/IDV60801/IDV60801.94837.json